createdAt,value
2019-02-04T00:01:46.238Z,98178.46
2019-02-04T00:04:15.973Z,98179.34
2019-02-04T00:06:45.679Z,98179.37
2019-02-04T00:09:15.400Z,98179.34
2019-02-04T00:11:45.095Z,98178.17
2019-02-04T00:14:14.890Z,98177.48
2019-02-04T00:16:44.320Z,98177.13
2019-02-04T00:19:13.993Z,98177.56
2019-02-04T00:21:43.776Z,98181.48
2019-02-04T00:24:13.460Z,98186.75
2019-02-04T00:26:51.325Z,98169.98
2019-02-04T00:29:14.141Z,98179.27
2019-02-04T00:31:43.633Z,98173.93
2019-02-04T00:34:13.151Z,98176.98
2019-02-04T00:36:42.948Z,98171.50
2019-02-04T00:39:12.817Z,98176.94
2019-02-04T00:41:42.459Z,98173.45
2019-02-04T00:44:12.107Z,98176.66
2019-02-04T00:46:51.751Z,98171.97
2019-02-04T00:49:13.384Z,98173.06
2019-02-04T00:51:43.093Z,98176.47
2019-02-04T00:54:12.798Z,98177.67
2019-02-04T00:56:42.570Z,98182.58
2019-02-04T00:59:12.485Z,98181.70
2019-02-04T01:01:41.921Z,98189.48
2019-02-04T01:04:11.302Z,98187.26
2019-02-04T01:06:40.975Z,98182.21
2019-02-04T01:09:11.583Z,98175.67
2019-02-04T01:11:41.059Z,98176.91
2019-02-04T01:14:10.815Z,98181.30
2019-02-04T01:16:40.688Z,98178.17
2019-02-04T01:19:10.508Z,98178.69
2019-02-04T01:21:40.377Z,98178.58
2019-02-04T01:24:10.189Z,98183.84
2019-02-04T01:26:39.627Z,98176.83
2019-02-04T01:29:09.335Z,98177.23
2019-02-04T01:31:39.109Z,98176.19
2019-02-04T01:34:08.606Z,98170.12
2019-02-04T01:36:38.665Z,98175.31
2019-02-04T01:39:09.938Z,98189.87
2019-02-04T01:41:39.441Z,98199.95
2019-02-04T01:44:09.204Z,98194.39
2019-02-04T01:46:39.037Z,98189.80
2019-02-04T01:49:08.486Z,98189.77
2019-02-04T01:51:38.380Z,98182.03
2019-02-04T01:54:07.801Z,98183.44
2019-02-04T01:56:37.496Z,98194.32
2019-02-04T01:59:06.995Z,98196.41
2019-02-04T02:01:37.792Z,98192.78
2019-02-04T02:04:07.692Z,98199.76
2019-02-04T02:06:37.502Z,98193.86
2019-02-04T02:09:16.631Z,98200.39
2019-02-04T02:11:46.074Z,98199.72
2019-02-04T02:14:15.673Z,98204.55
2019-02-04T02:16:45.446Z,98206.15
2019-02-04T02:19:14.921Z,98208.09
2019-02-04T02:21:44.593Z,98212.52
2019-02-04T02:24:14.305Z,98218.88
2019-02-04T02:26:43.972Z,98218.09
2019-02-04T02:29:14.048Z,98218.66
2019-02-04T02:31:43.501Z,98214.36
2019-02-04T02:34:12.950Z,98222.07
2019-02-04T02:36:42.484Z,98218.66
2019-02-04T02:39:12.176Z,98215.61
2019-02-04T02:41:41.874Z,98213.70
2019-02-04T02:44:11.984Z,98214.20
2019-02-04T02:46:41.795Z,98210.31
2019-02-04T02:49:11.500Z,98215.14
2019-02-04T02:51:40.945Z,98220.98
2019-02-04T02:54:10.591Z,98236.60
2019-02-04T02:56:40.019Z,98235.98
2019-02-04T02:59:09.413Z,98237.75
2019-02-04T03:01:38.857Z,98235.91
2019-02-04T03:04:08.526Z,98229.69
2019-02-04T03:06:38.416Z,98242.72
2019-02-04T03:09:08.995Z,98246.17
2019-02-04T03:11:38.860Z,98239.54
2019-02-04T03:14:08.375Z,98242.59
2019-02-04T03:16:37.925Z,98238.06
2019-02-04T03:19:07.399Z,98242.38
2019-02-04T03:21:36.830Z,98238.03
2019-02-04T03:24:06.419Z,98250.53
2019-02-04T03:26:36.049Z,98245.23
2019-02-04T03:29:05.736Z,98252.65
2019-02-04T03:31:38.872Z,98262.67
2019-02-04T03:34:06.609Z,98262.17
2019-02-04T03:36:36.055Z,98266.28
2019-02-04T03:39:08.630Z,98264.48
2019-02-04T03:41:38.364Z,98270.17
2019-02-04T03:44:07.959Z,98261.83
2019-02-04T03:46:37.424Z,98257.13
2019-02-04T03:49:07.391Z,98264.95
2019-02-04T03:51:36.842Z,98264.10
2019-02-04T03:54:06.598Z,98264.98
2019-02-04T03:56:36.149Z,98269.73
2019-02-04T03:59:05.904Z,98268.34
2019-02-04T04:01:35.421Z,98263.98
2019-02-04T04:04:05.318Z,98273.59
2019-02-04T04:06:35.215Z,98274.62
2019-02-04T04:09:07.451Z,98280.71
2019-02-04T04:11:36.982Z,98279.34
2019-02-04T04:14:06.497Z,98283.00
2019-02-04T04:16:35.939Z,98275.11
2019-02-04T04:19:05.714Z,98294.01
2019-02-04T04:21:35.153Z,98297.11
2019-02-04T04:24:04.627Z,98299.78
2019-02-04T04:26:34.220Z,98298.59
2019-02-04T04:29:04.035Z,98298.80
2019-02-04T04:31:33.470Z,98303.02
2019-02-04T04:34:03.761Z,98301.89
2019-02-04T04:36:33.498Z,98309.63
2019-02-04T04:39:04.592Z,98302.09
2019-02-04T04:41:34.187Z,98300.84
2019-02-04T04:44:03.692Z,98298.82
2019-02-04T04:46:33.605Z,98304.23
2019-02-04T04:49:03.000Z,98307.14
2019-02-04T04:51:32.436Z,98310.16
2019-02-04T04:54:04.505Z,98315.00
2019-02-04T04:56:33.925Z,98313.73
2019-02-04T04:59:03.572Z,98314.22
2019-02-04T05:01:33.766Z,98322.54
2019-02-04T05:04:03.865Z,98327.32
2019-02-04T05:06:33.594Z,98325.02
2019-02-04T05:09:04.769Z,98324.14
2019-02-04T05:11:34.604Z,98329.84
2019-02-04T05:14:04.455Z,98330.73
2019-02-04T05:16:33.905Z,98335.25
2019-02-04T05:19:03.750Z,98332.19
2019-02-04T05:21:33.481Z,98340.08
2019-02-04T05:24:02.874Z,98344.89
2019-02-04T05:26:32.772Z,98345.75
2019-02-04T05:29:02.878Z,98348.48
2019-02-04T05:31:32.322Z,98353.83
2019-02-04T05:34:01.926Z,98353.36
2019-02-04T05:36:31.757Z,98348.65
2019-02-04T05:39:01.514Z,98358.67
2019-02-04T05:41:30.956Z,98362.69
2019-02-04T05:44:00.466Z,98368.42
2019-02-04T05:46:30.095Z,98371.95
2019-02-04T05:48:59.886Z,98374.08
2019-02-04T05:51:29.358Z,98380.98
2019-02-04T05:53:58.793Z,98389.77
2019-02-04T05:56:28.468Z,98398.90
2019-02-04T05:58:58.203Z,98401.05
2019-02-04T06:01:28.024Z,98396.14
2019-02-04T06:03:57.741Z,98392.13
2019-02-04T06:06:27.428Z,98389.56
2019-02-04T06:08:57.063Z,98386.01
2019-02-04T06:11:27.332Z,98382.94
2019-02-04T06:13:57.176Z,98385.50
2019-02-04T06:16:26.985Z,98393.77
2019-02-04T06:19:00.816Z,98395.61
2019-02-04T06:21:27.652Z,98404.59
2019-02-04T06:23:57.359Z,98399.63
2019-02-04T06:26:26.941Z,98402.59
2019-02-04T06:28:56.347Z,98406.48
2019-02-04T06:31:26.103Z,98412.16
2019-02-04T06:33:55.962Z,98411.56
2019-02-04T06:36:25.743Z,98424.97
2019-02-04T06:38:56.832Z,98419.17
2019-02-04T06:41:26.527Z,98419.51
2019-02-04T06:43:56.129Z,98421.91
2019-02-04T06:46:25.959Z,98421.39
2019-02-04T06:48:55.727Z,98433.37
2019-02-04T06:51:25.115Z,98430.37
2019-02-04T06:53:54.973Z,98429.70
2019-02-04T06:56:24.882Z,98438.14
2019-02-04T06:58:54.702Z,98436.61
2019-02-04T07:01:24.101Z,98432.62
2019-02-04T07:03:53.701Z,98435.95
2019-02-04T07:06:24.326Z,98447.02
2019-02-04T07:08:53.886Z,98449.99
2019-02-04T07:11:23.563Z,98441.62
2019-02-04T07:13:53.225Z,98439.13
2019-02-04T07:16:22.879Z,98451.22
2019-02-04T07:18:52.472Z,98455.29
2019-02-04T07:21:22.347Z,98459.41
2019-02-04T07:23:52.220Z,98454.22
2019-02-04T07:26:21.859Z,98447.45
2019-02-04T07:28:51.513Z,98454.05
2019-02-04T07:31:21.235Z,98453.64
2019-02-04T07:33:50.734Z,98449.16
2019-02-04T07:36:20.727Z,98450.35
2019-02-04T07:38:50.239Z,98449.73
2019-02-04T07:41:19.973Z,98450.77
2019-02-04T07:43:49.477Z,98460.50
2019-02-04T07:46:18.868Z,98464.00
2019-02-04T07:48:48.476Z,98450.03
2019-02-04T07:51:18.324Z,98449.00
2019-02-04T07:53:47.762Z,98452.63
2019-02-04T07:56:17.435Z,98452.58
2019-02-04T07:58:47.234Z,98453.88
2019-02-04T08:01:16.795Z,98462.56
2019-02-04T08:03:46.425Z,98464.23
2019-02-04T08:06:15.911Z,98461.68
2019-02-04T08:08:45.796Z,98465.95
2019-02-04T08:11:15.198Z,98470.45
2019-02-04T08:13:44.604Z,98473.59
2019-02-04T08:16:14.555Z,98476.23
2019-02-04T08:18:44.645Z,98473.35
2019-02-04T08:21:14.271Z,98469.52
2019-02-04T08:23:43.676Z,98470.53
2019-02-04T08:26:13.330Z,98466.88
2019-02-04T08:28:42.828Z,98468.08
2019-02-04T08:31:12.402Z,98460.47
2019-02-04T08:33:42.547Z,98461.67
2019-02-04T08:36:12.509Z,98465.70
2019-02-04T08:38:42.241Z,98460.41
2019-02-04T08:41:12.073Z,98457.69
2019-02-04T08:43:41.616Z,98455.92
2019-02-04T08:46:11.255Z,98461.65
2019-02-04T08:48:41.077Z,98455.73
2019-02-04T08:51:10.968Z,98452.30
2019-02-04T08:53:40.651Z,98452.28
2019-02-04T08:56:10.213Z,98459.49
2019-02-04T08:58:39.903Z,98445.86
2019-02-04T09:01:09.799Z,98452.77
2019-02-04T09:03:40.004Z,98455.29
2019-02-04T09:06:09.467Z,98465.19
2019-02-04T09:08:38.877Z,98453.97
2019-02-04T09:11:08.841Z,98466.36
2019-02-04T09:13:38.672Z,98460.31
2019-02-04T09:16:08.160Z,98461.22
2019-02-04T09:18:44.890Z,98457.08
2019-02-04T09:21:09.488Z,98459.55
2019-02-04T09:23:39.333Z,98463.69
2019-02-04T09:26:09.061Z,98461.59
2019-02-04T09:28:38.668Z,98457.65
2019-02-04T09:31:08.499Z,98457.86
2019-02-04T09:33:38.549Z,98455.64
2019-02-04T09:36:08.415Z,98454.63
2019-02-04T09:38:38.015Z,98448.69
2019-02-04T09:41:07.987Z,98453.52
2019-02-04T09:43:37.824Z,98453.33
2019-02-04T09:46:07.292Z,98445.30
2019-02-04T09:48:37.269Z,98446.74
2019-02-04T09:51:07.030Z,98445.03
2019-02-04T09:53:36.575Z,98445.47
2019-02-04T09:56:06.680Z,98441.14
2019-02-04T09:58:36.240Z,98439.41
2019-02-04T10:01:06.637Z,98428.75
2019-02-04T10:03:36.335Z,98430.70
2019-02-04T10:06:06.478Z,98431.84
2019-02-04T10:08:36.115Z,98436.92
2019-02-04T10:11:05.791Z,98434.12
2019-02-04T10:13:35.492Z,98424.91
2019-02-04T10:16:05.900Z,98427.17
2019-02-04T10:18:37.853Z,98425.13
2019-02-04T10:21:07.152Z,98424.99
2019-02-04T10:23:36.906Z,98424.66
2019-02-04T10:26:06.515Z,98420.17
2019-02-04T10:28:36.279Z,98418.44
2019-02-04T10:31:05.880Z,98416.35
2019-02-04T10:33:35.364Z,98415.59
2019-02-04T10:36:05.049Z,98410.66
2019-02-04T10:38:34.485Z,98413.59
2019-02-04T10:41:04.404Z,98415.33
2019-02-04T10:43:34.586Z,98404.88
2019-02-04T10:46:05.088Z,98404.95
2019-02-04T10:48:35.041Z,98401.57
2019-02-04T10:51:04.965Z,98400.69
2019-02-04T10:53:34.538Z,98400.11
2019-02-04T10:56:04.475Z,98397.89
2019-02-04T10:58:34.287Z,98389.67
2019-02-04T11:01:05.451Z,98392.75
2019-02-04T11:03:35.343Z,98392.64
2019-02-04T11:06:05.526Z,98396.07
2019-02-04T11:08:34.887Z,98395.52
2019-02-04T11:11:04.913Z,98388.59
2019-02-04T11:13:34.592Z,98391.06
2019-02-04T11:16:04.485Z,98396.20
2019-02-04T11:18:34.130Z,98397.01
2019-02-04T11:21:04.033Z,98395.50
2019-02-04T11:23:33.791Z,98394.69
2019-02-04T11:26:03.714Z,98389.95
2019-02-04T11:28:33.453Z,98399.44
2019-02-04T11:31:05.100Z,98391.70
2019-02-04T11:33:34.485Z,98393.06
2019-02-04T11:36:04.548Z,98389.63
2019-02-04T11:38:34.497Z,98383.31
2019-02-04T11:41:04.357Z,98378.83
2019-02-04T11:43:33.749Z,98385.52
2019-02-04T11:46:03.581Z,98384.13
2019-02-04T11:48:33.506Z,98383.45
2019-02-04T11:51:09.718Z,98381.92
2019-02-04T11:53:34.315Z,98376.47
2019-02-04T11:56:03.784Z,98377.09
2019-02-04T11:58:33.290Z,98372.09
2019-02-04T12:01:03.169Z,98369.63
2019-02-04T12:03:33.048Z,98368.59
2019-02-04T12:06:02.452Z,98362.94
2019-02-04T12:08:32.145Z,98362.44
2019-02-04T12:11:21.533Z,98360.64
2019-02-04T12:13:51.012Z,98362.23
2019-02-04T12:16:20.451Z,98357.53
2019-02-04T12:18:49.863Z,98354.80
2019-02-04T12:21:21.682Z,98358.59
2019-02-04T12:23:51.185Z,98351.10
2019-02-04T12:26:20.887Z,98353.27
2019-02-04T12:28:51.642Z,98358.41
2019-02-04T12:31:21.803Z,98362.80
2019-02-04T12:33:51.447Z,98353.88
2019-02-04T12:36:20.958Z,98350.70
2019-02-04T12:38:50.855Z,98352.95
2019-02-04T12:41:20.266Z,98356.30
2019-02-04T12:43:50.104Z,98358.98
2019-02-04T12:46:20.020Z,98353.41
2019-02-04T12:48:49.714Z,98351.26
2019-02-04T12:51:19.117Z,98351.52
2019-02-04T12:53:48.709Z,98354.22
2019-02-04T12:56:18.201Z,98352.15
2019-02-04T12:58:55.333Z,98346.61
2019-02-04T13:01:19.055Z,98352.47
2019-02-04T13:03:48.573Z,98348.29
2019-02-04T13:06:18.448Z,98342.48
2019-02-04T13:08:48.171Z,98337.52
2019-02-04T13:11:18.070Z,98336.80
2019-02-04T13:13:48.233Z,98331.61
2019-02-04T13:16:18.026Z,98329.50
2019-02-04T13:18:47.742Z,98335.42
2019-02-04T13:21:17.582Z,98331.61
2019-02-04T13:23:47.067Z,98331.75
2019-02-04T13:26:16.465Z,98327.97
2019-02-04T13:28:46.031Z,98327.45
2019-02-04T13:31:15.625Z,98326.90
2019-02-04T13:33:45.111Z,98329.80
2019-02-04T13:36:14.779Z,98325.44
2019-02-04T13:38:44.371Z,98315.53
2019-02-04T13:41:14.219Z,98322.70
2019-02-04T13:43:44.039Z,98337.63
2019-02-04T13:46:13.720Z,98334.88
2019-02-04T13:48:43.312Z,98334.70
2019-02-04T13:51:13.169Z,98341.16
2019-02-04T13:53:42.575Z,98342.81
2019-02-04T13:56:14.575Z,98339.91
2019-02-04T13:58:44.155Z,98339.92
2019-02-04T14:01:14.041Z,98341.18
2019-02-04T14:03:43.429Z,98344.95
2019-02-04T14:06:13.365Z,98340.20
2019-02-04T14:08:43.174Z,98342.08
2019-02-04T14:11:12.848Z,98339.73
2019-02-04T14:13:42.567Z,98337.00
2019-02-04T14:16:12.357Z,98340.22
2019-02-04T14:18:41.854Z,98337.91
2019-02-04T14:21:11.251Z,98336.86
2019-02-04T14:23:40.934Z,98337.01
2019-02-04T14:26:10.911Z,98325.87
2019-02-04T14:28:40.740Z,98322.21
2019-02-04T14:31:10.182Z,98320.66
2019-02-04T14:33:39.588Z,98321.19
2019-02-04T14:36:09.565Z,98318.88
2019-02-04T14:38:39.432Z,98317.56
2019-02-04T14:41:09.134Z,98317.41
2019-02-04T14:43:50.857Z,98312.23
2019-02-04T14:46:35.127Z,98315.62
2019-02-04T14:49:47.189Z,98313.12
2019-02-04T14:52:46.960Z,98319.09
2019-02-04T14:55:52.427Z,98321.20
2019-02-04T14:58:46.385Z,98321.11
2019-02-04T15:02:02.868Z,98321.84
2019-02-04T15:05:23.966Z,98326.59
2019-02-04T15:08:39.640Z,98324.04
2019-02-04T15:11:33.289Z,98327.38
2019-02-04T15:14:32.197Z,98326.45
2019-02-04T15:17:26.606Z,98324.23
2019-02-04T15:20:55.269Z,98321.93
2019-02-04T15:24:09.178Z,98327.67
2019-02-04T15:27:05.387Z,98334.34
2019-02-04T15:30:13.949Z,98331.44
2019-02-04T15:33:19.523Z,98337.75
2019-02-04T15:36:32.508Z,98341.30
2019-02-04T15:39:29.718Z,98345.38
2019-02-04T15:42:31.896Z,98344.75
2019-02-04T15:45:04.848Z,98343.17
2019-02-04T15:47:42.676Z,98341.59
2019-02-04T15:50:55.028Z,98348.91
2019-02-04T15:53:24.523Z,98350.16
2019-02-04T15:55:54.392Z,98350.55
2019-02-04T15:58:23.996Z,98357.39
2019-02-04T16:00:55.612Z,98367.68
2019-02-04T16:03:25.306Z,98359.20
2019-02-04T16:05:54.706Z,98366.56
2019-02-04T16:08:24.623Z,98362.63
2019-02-04T16:10:54.103Z,98367.16
2019-02-04T16:13:23.867Z,98363.80
2019-02-04T16:15:53.249Z,98367.13
2019-02-04T16:18:22.964Z,98370.30
2019-02-04T16:20:52.720Z,98375.16
2019-02-04T16:23:22.120Z,98378.53
2019-02-04T16:25:51.523Z,98378.39
2019-02-04T16:28:21.659Z,98382.02
2019-02-04T16:30:53.587Z,98392.28
2019-02-04T16:33:23.198Z,98400.06
2019-02-04T16:35:52.980Z,98400.46
2019-02-04T16:38:22.671Z,98407.95
2019-02-04T16:40:52.662Z,98411.15
2019-02-04T16:43:22.245Z,98412.78
2019-02-04T16:45:52.644Z,98415.72
2019-02-04T16:48:22.147Z,98415.58
2019-02-04T16:51:10.636Z,98419.66
2019-02-04T16:53:25.263Z,98423.62
2019-02-04T16:55:55.351Z,98426.27
2019-02-04T16:58:24.926Z,98426.22
2019-02-04T17:00:54.355Z,98423.59
2019-02-04T17:03:24.290Z,98426.27
2019-02-04T17:05:53.797Z,98426.37
2019-02-04T17:08:23.494Z,98427.47
2019-02-04T17:10:53.073Z,98435.47
2019-02-04T17:13:23.332Z,98436.80
2019-02-04T17:15:53.397Z,98439.55
2019-02-04T17:18:22.897Z,98437.83
2019-02-04T17:20:52.300Z,98444.31
2019-02-04T17:23:22.819Z,98444.66
2019-02-04T17:25:54.587Z,98444.48
2019-02-04T17:28:24.410Z,98444.74
2019-02-04T17:30:54.271Z,98446.54
2019-02-04T17:33:24.028Z,98441.71
2019-02-04T17:35:53.509Z,98446.44
2019-02-04T17:38:23.717Z,98444.69
2019-02-04T17:40:53.578Z,98443.29
2019-02-04T17:43:23.247Z,98444.94
2019-02-04T17:45:52.665Z,98448.00
2019-02-04T17:48:23.504Z,98446.69
2019-02-04T17:50:53.474Z,98445.73
2019-02-04T17:53:33.608Z,98441.84
2019-02-04T17:55:54.388Z,98435.36
2019-02-04T17:58:24.815Z,98441.09
2019-02-04T18:00:55.039Z,98435.41
2019-02-04T18:03:25.142Z,98435.50
2019-02-04T18:05:55.325Z,98436.46
2019-02-04T18:08:24.742Z,98436.46
2019-02-04T18:10:54.534Z,98435.98
2019-02-04T18:13:24.313Z,98434.73
2019-02-04T18:15:54.128Z,98437.35
2019-02-04T18:18:24.182Z,98438.89
2019-02-04T18:20:53.892Z,98438.58
2019-02-04T18:23:23.732Z,98438.63
2019-02-04T18:25:53.641Z,98437.09
2019-02-04T18:28:23.104Z,98435.52
2019-02-04T18:30:52.837Z,98433.94
2019-02-04T18:33:22.674Z,98433.02
2019-02-04T18:35:52.217Z,98430.87
2019-02-04T18:38:21.635Z,98434.42
2019-02-04T18:40:51.315Z,98437.60
2019-02-04T18:43:21.191Z,98438.61
2019-02-04T18:45:50.946Z,98434.71
2019-02-04T18:48:21.122Z,98440.95
2019-02-04T18:50:50.834Z,98440.52
2019-02-04T18:53:20.257Z,98440.55
2019-02-04T18:55:49.689Z,98449.46
2019-02-04T18:58:19.433Z,98453.23
2019-02-04T19:00:49.679Z,98459.55
2019-02-04T19:03:19.096Z,98466.51
2019-02-04T19:05:48.650Z,98475.77
2019-02-04T19:08:18.376Z,98480.30
2019-02-04T19:10:47.874Z,98480.44
2019-02-04T19:13:17.298Z,98488.02
2019-02-04T19:15:46.877Z,98483.69
2019-02-04T19:18:18.793Z,98492.47
2019-02-04T19:20:48.719Z,98494.22
2019-02-04T19:23:18.465Z,98491.63
2019-02-04T19:25:48.118Z,98489.48
2019-02-04T19:28:17.980Z,98489.48
2019-02-04T19:31:17.200Z,98495.23
2019-02-04T19:33:47.069Z,98497.20
2019-02-04T19:36:18.577Z,98503.56
2019-02-04T19:38:48.465Z,98505.81
2019-02-04T19:41:18.333Z,98509.23
2019-02-04T19:43:47.833Z,98505.34
2019-02-04T19:46:17.339Z,98514.48
2019-02-04T19:48:46.741Z,98509.64
2019-02-04T19:51:16.523Z,98512.70
2019-02-04T19:53:46.031Z,98516.26
2019-02-04T19:56:15.534Z,98511.92
2019-02-04T19:58:45.082Z,98504.94
2019-02-04T20:01:14.751Z,98508.87
2019-02-04T20:03:44.548Z,98505.88
2019-02-04T20:06:14.335Z,98506.79
2019-02-04T20:08:44.090Z,98500.53
2019-02-04T20:11:13.767Z,98497.88
2019-02-04T20:13:43.399Z,98498.92
2019-02-04T20:16:13.252Z,98497.01
2019-02-04T20:18:42.786Z,98495.70
2019-02-04T20:21:12.456Z,98484.45
2019-02-04T20:23:41.978Z,98492.02
2019-02-04T20:26:11.636Z,98488.08
2019-02-04T20:28:41.039Z,98492.41
2019-02-04T20:31:10.486Z,98495.94
2019-02-04T20:33:40.019Z,98508.23
2019-02-04T20:36:10.096Z,98512.97
2019-02-04T20:38:39.928Z,98510.98
2019-02-04T20:41:09.652Z,98516.56
2019-02-04T20:43:40.552Z,98511.22
2019-02-04T20:46:10.096Z,98504.40
2019-02-04T20:48:39.874Z,98503.02
2019-02-04T20:51:09.835Z,98506.61
2019-02-04T20:53:39.528Z,98504.06
2019-02-04T20:56:09.238Z,98499.87
2019-02-04T20:58:38.822Z,98502.66
2019-02-04T21:01:08.779Z,98504.03
2019-02-04T21:03:38.185Z,98505.44
2019-02-04T21:06:07.596Z,98500.67
2019-02-04T21:08:38.449Z,98499.39
2019-02-04T21:11:08.188Z,98491.23
2019-02-04T21:13:37.577Z,98492.17
2019-02-04T21:16:06.990Z,98500.09
2019-02-04T21:18:36.535Z,98500.49
2019-02-04T21:21:06.010Z,98501.36
2019-02-04T21:23:35.422Z,98497.09
2019-02-04T21:26:06.960Z,98507.19
2019-02-04T21:28:36.517Z,98507.56
2019-02-04T21:31:06.299Z,98507.63
2019-02-04T21:33:36.069Z,98502.02
2019-02-04T21:36:05.783Z,98505.50
2019-02-04T21:38:35.178Z,98503.33
2019-02-04T21:41:04.823Z,98506.81
2019-02-04T21:43:35.120Z,98516.38
2019-02-04T21:46:04.715Z,98511.68
2019-02-04T21:48:34.286Z,98515.72
2019-02-04T21:51:03.728Z,98511.39
2019-02-04T21:53:33.447Z,98510.84
2019-02-04T21:56:03.346Z,98509.69
2019-02-04T21:58:32.785Z,98510.97
2019-02-04T22:01:02.378Z,98506.20
2019-02-04T22:03:31.992Z,98511.49
2019-02-04T22:06:01.613Z,98512.30
2019-02-04T22:08:31.007Z,98509.44
2019-02-04T22:11:00.605Z,98512.89
2019-02-04T22:13:30.257Z,98503.26
2019-02-04T22:15:59.942Z,98509.40
2019-02-04T22:18:29.758Z,98516.85
2019-02-04T22:20:59.569Z,98508.46
2019-02-04T22:23:29.150Z,98507.02
2019-02-04T22:25:58.971Z,98507.42
2019-02-04T22:28:28.593Z,98514.61
2019-02-04T22:30:58.690Z,98518.41
2019-02-04T22:33:28.100Z,98518.91
2019-02-04T22:35:57.590Z,98518.11
2019-02-04T22:38:27.197Z,98514.58
2019-02-04T22:40:56.794Z,98512.19
2019-02-04T22:43:26.275Z,98507.14
2019-02-04T22:45:55.920Z,98513.58
2019-02-04T22:48:25.719Z,98513.08
2019-02-04T22:50:55.138Z,98516.64
2019-02-04T22:53:24.733Z,98516.13
2019-02-04T22:55:54.125Z,98507.39
2019-02-04T22:58:23.606Z,98508.30
2019-02-04T23:01:18.816Z,98508.38
2019-02-04T23:03:48.261Z,98501.83
2019-02-04T23:06:17.927Z,98507.14
2019-02-04T23:08:47.432Z,98502.00
2019-02-04T23:11:17.218Z,98508.38
2019-02-04T23:13:46.623Z,98508.08
2019-02-04T23:16:16.024Z,98506.48
2019-02-04T23:18:45.442Z,98511.75
2019-02-04T23:21:14.848Z,98511.12
2019-02-04T23:23:44.304Z,98511.89
2019-02-04T23:26:14.141Z,98516.36
2019-02-04T23:28:43.542Z,98503.77
2019-02-04T23:31:12.944Z,98502.45
2019-02-04T23:33:42.428Z,98508.56
2019-02-04T23:36:11.953Z,98509.81
2019-02-04T23:38:41.356Z,98501.84
2019-02-04T23:41:10.757Z,98499.81
2019-02-04T23:43:40.261Z,98495.20
2019-02-04T23:46:09.753Z,98499.89
2019-02-04T23:48:39.180Z,98496.11
2019-02-04T23:51:08.575Z,98493.34
2019-02-04T23:53:38.063Z,98491.37
2019-02-04T23:56:07.652Z,98488.63
2019-02-04T23:58:37.042Z,98490.27
